Time;durP1;ratioP1;P1;durP2;ratioP2;P2;SDS_P1;SDS_P2;PMS_P1;PMS_P2;Temp;Humidity;BMP_temperature;BMP_pressure;BME280_temperature;BME280_humidity;BME280_pressure;Samples;Min_cycle;Max_cycle;Signal;HPM_P1;HPM_P2
2022/03/16 00:00:20;;;;;;;14.00;7.80;;;8.90;99.90;;;;;;5012170;28;20274;-66
2022/03/16 00:02:46;;;;;;;13.63;8.27;;;8.80;99.90;;;;;;5014071;28;20222;-66
2022/03/16 00:05:13;;;;;;;14.67;8.37;;;8.80;99.90;;;;;;5011276;28;20199;-66
2022/03/16 00:07:38;;;;;;;19.00;8.83;;;8.80;99.90;;;;;;5021910;28;20291;-66
2022/03/16 00:10:07;;;;;;;11.33;8.03;;;8.80;99.90;;;;;;5020818;28;20279;-65
2022/03/16 00:12:33;;;;;;;12.80;9.33;;;8.80;99.90;;;;;;5020453;28;20284;-67
2022/03/16 00:14:58;;;;;;;16.63;9.47;;;8.80;99.90;;;;;;5021480;28;20286;-67
2022/03/16 00:17:24;;;;;;;12.80;8.70;;;8.80;99.90;;;;;;5014262;28;20289;-66
2022/03/16 00:19:49;;;;;;;13.93;9.27;;;8.90;99.90;;;;;;5020376;28;20233;-68
2022/03/16 00:22:15;;;;;;;12.10;8.93;;;8.90;99.90;;;;;;5012882;28;20461;-67
2022/03/16 00:24:40;;;;;;;13.57;9.80;;;8.90;99.90;;;;;;5023275;28;20204;-68
2022/03/16 00:27:06;;;;;;;13.90;9.00;;;8.90;99.90;;;;;;5011659;28;20319;-68
2022/03/16 00:29:31;;;;;;;16.70;9.97;;;8.80;99.90;;;;;;5023624;28;20200;-68
2022/03/16 00:31:58;;;;;;;16.93;9.97;;;8.70;99.90;;;;;;5011846;28;20219;-70
2022/03/16 00:34:23;;;;;;;15.13;9.77;;;8.70;99.90;;;;;;5022966;28;20208;-71
2022/03/16 00:36:49;;;;;;;13.77;8.60;;;8.60;99.90;;;;;;5018200;28;20345;-69
2022/03/16 00:39:15;;;;;;;19.63;10.03;;;8.50;99.90;;;;;;5020819;28;20211;-70
2022/03/16 00:41:40;;;;;;;25.83;11.27;;;8.60;99.90;;;;;;5011508;28;20288;-68
2022/03/16 00:44:06;;;;;;;17.83;11.63;;;8.60;99.90;;;;;;5020070;28;20613;-67
2022/03/16 00:46:32;;;;;;;19.77;10.10;;;8.60;99.90;;;;;;5028087;28;20832;-69
2022/03/16 00:48:58;;;;;;;18.87;10.27;;;8.60;99.90;;;;;;5019007;28;20204;-68
2022/03/16 00:51:24;;;;;;;20.60;10.67;;;8.50;99.90;;;;;;5011716;28;20554;-66
2022/03/16 00:53:49;;;;;;;16.03;11.53;;;8.50;99.90;;;;;;5017772;28;20204;-66
2022/03/16 00:56:15;;;;;;;18.63;11.70;;;8.50;99.90;;;;;;5020505;28;20203;-69
2022/03/16 00:58:40;;;;;;;17.67;10.43;;;8.50;99.90;;;;;;5009595;28;20196;-67
2022/03/16 01:01:07;;;;;;;18.07;11.47;;;8.30;99.90;;;;;;5023870;28;20593;-66
2022/03/16 01:03:34;;;;;;;15.43;10.27;;;8.30;99.90;;;;;;5018077;28;20657;-66
2022/03/16 01:06:00;;;;;;;14.77;10.33;;;8.20;99.90;;;;;;5023376;28;20188;-68
2022/03/16 01:08:25;;;;;;;20.30;11.93;;;8.20;99.90;;;;;;5019954;28;20242;-70
2022/03/16 01:10:55;;;;;;;18.30;11.20;;;8.10;99.90;;;;;;5026447;28;20271;-70
2022/03/16 01:13:20;;;;;;;22.07;12.17;;;8.10;99.90;;;;;;4993791;28;20202;-70
2022/03/16 01:15:46;;;;;;;16.00;10.63;;;8.00;99.90;;;;;;5021428;28;20184;-70
2022/03/16 01:18:11;;;;;;;19.73;11.43;;;8.00;99.90;;;;;;5005587;28;20699;-70
2022/03/16 01:20:37;;;;;;;20.67;11.00;;;8.00;99.90;;;;;;5022125;28;20380;-68
2022/03/16 01:23:02;;;;;;;16.53;10.17;;;8.00;99.90;;;;;;5011228;28;20204;-65
2022/03/16 01:25:28;;;;;;;17.77;11.50;;;7.90;99.90;;;;;;5016781;28;20236;-68
2022/03/16 01:27:53;;;;;;;20.07;12.90;;;7.90;99.90;;;;;;5012601;28;20375;-69
2022/03/16 01:30:19;;;;;;;16.50;10.90;;;7.90;99.90;;;;;;5019731;28;20696;-68
2022/03/16 01:32:45;;;;;;;13.83;10.33;;;7.90;99.90;;;;;;5017987;28;20212;-68
2022/03/16 01:35:11;;;;;;;14.53;11.47;;;7.80;99.90;;;;;;5016809;28;20192;-69
2022/03/16 01:37:38;;;;;;;17.43;11.60;;;7.80;99.90;;;;;;5005969;28;20201;-67
2022/03/16 01:40:05;;;;;;;16.57;9.53;;;7.80;99.90;;;;;;5016272;28;20290;-66
2022/03/16 01:42:32;;;;;;;22.03;12.17;;;7.80;99.90;;;;;;5017634;28;20410;-66
2022/03/16 01:44:58;;;;;;;15.83;11.40;;;7.80;99.90;;;;;;5016784;28;20182;-66
2022/03/16 01:47:24;;;;;;;16.90;11.67;;;7.80;99.90;;;;;;5007955;28;20199;-67
2022/03/16 01:49:53;;;;;;;13.90;9.77;;;7.80;99.90;;;;;;5025276;28;20200;-66
2022/03/16 01:52:22;;;;;;;17.30;11.17;;;7.80;99.90;;;;;;5024378;28;20231;-67
2022/03/16 01:54:48;;;;;;;15.73;11.03;;;7.70;99.90;;;;;;5014679;28;20275;-66
2022/03/16 01:57:15;;;;;;;17.07;9.73;;;7.70;99.90;;;;;;5008000;28;20199;-66
2022/03/16 01:59:41;;;;;;;19.67;10.77;;;7.70;99.90;;;;;;5014598;28;20204;-67
2022/03/16 02:02:06;;;;;;;17.37;11.60;;;7.70;99.90;;;;;;5011616;28;20544;-67
2022/03/16 02:04:32;;;;;;;18.90;11.33;;;7.60;99.90;;;;;;5015124;28;20194;-67
2022/03/16 02:06:59;;;;;;;17.07;10.43;;;7.60;99.90;;;;;;5007390;28;20200;-68
2022/03/16 02:09:25;;;;;;;16.40;10.53;;;7.50;99.90;;;;;;5018304;28;20201;-67
2022/03/16 02:11:51;;;;;;;12.97;10.30;;;7.50;99.90;;;;;;5007463;28;20389;-67
2022/03/16 02:14:19;;;;;;;21.93;11.17;;;7.50;99.90;;;;;;5014483;28;20208;-68
2022/03/16 02:16:46;;;;;;;18.53;10.43;;;7.40;99.90;;;;;;5007139;28;20200;-68
2022/03/16 02:19:11;;;;;;;14.20;10.83;;;7.40;99.90;;;;;;5018701;28;20203;-67
2022/03/16 02:21:38;;;;;;;17.97;11.00;;;7.40;99.90;;;;;;5007153;28;20747;-68
2022/03/16 02:24:05;;;;;;;19.07;10.97;;;7.30;99.90;;;;;;5018108;28;20214;-67
2022/03/16 02:26:30;;;;;;;17.77;10.37;;;7.30;99.90;;;;;;5005965;28;20213;-67
2022/03/16 02:28:57;;;;;;;17.77;10.87;;;7.30;99.90;;;;;;5005322;28;20203;-67
2022/03/16 02:31:23;;;;;;;11.90;9.27;;;7.30;99.90;;;;;;5006399;28;20188;-68
2022/03/16 02:33:48;;;;;;;15.83;9.57;;;7.30;99.90;;;;;;5014433;28;20554;-68
2022/03/16 02:36:14;;;;;;;17.73;11.00;;;7.20;99.90;;;;;;5007098;28;20192;-68
2022/03/16 02:38:40;;;;;;;12.33;9.97;;;7.20;99.90;;;;;;5014219;28;20687;-68
2022/03/16 02:41:05;;;;;;;15.43;10.63;;;7.10;99.90;;;;;;5023636;28;20237;-68
2022/03/16 02:43:31;;;;;;;20.83;10.13;;;7.00;99.90;;;;;;5004707;28;20207;-67
2022/03/16 02:45:56;;;;;;;15.80;10.07;;;7.00;99.90;;;;;;5007012;28;20615;-67
2022/03/16 02:48:22;;;;;;;21.57;10.70;;;7.00;99.90;;;;;;5011791;28;20201;-67
2022/03/16 02:50:48;;;;;;;17.40;10.07;;;7.00;99.90;;;;;;5018126;28;20690;-67
2022/03/16 02:53:15;;;;;;;19.27;9.20;;;7.00;99.90;;;;;;5016730;28;20295;-67
2022/03/16 02:55:44;;;;;;;14.17;10.43;;;7.00;99.90;;;;;;5019688;28;20190;-67
2022/03/16 02:58:13;;;;;;;16.37;10.53;;;7.00;99.90;;;;;;5012134;28;20709;-67
2022/03/16 03:00:39;;;;;;;18.13;10.53;;;6.90;99.90;;;;;;5006912;28;20184;-66
2022/03/16 03:03:05;;;;;;;21.43;11.80;;;6.90;99.90;;;;;;5005046;28;20546;-66
2022/03/16 03:05:30;;;;;;;15.87;9.90;;;6.90;99.90;;;;;;5010256;28;20537;-67
2022/03/16 03:07:56;;;;;;;17.70;10.47;;;6.80;99.90;;;;;;5011817;28;20198;-67
2022/03/16 03:10:21;;;;;;;18.87;10.40;;;6.80;99.90;;;;;;5010726;28;20614;-66
2022/03/16 03:12:47;;;;;;;16.00;10.17;;;6.80;99.90;;;;;;5004023;28;20571;-67
2022/03/16 03:15:14;;;;;;;17.97;10.70;;;6.80;99.90;;;;;;5020195;28;20547;-66
2022/03/16 03:17:41;;;;;;;17.83;12.00;;;6.70;99.90;;;;;;5012593;28;20224;-67
2022/03/16 03:20:07;;;;;;;18.97;10.70;;;6.70;99.90;;;;;;5018962;28;20195;-66
2022/03/16 03:22:32;;;;;;;13.73;9.93;;;6.60;99.90;;;;;;5004165;28;20333;-65
2022/03/16 03:24:58;;;;;;;19.07;10.17;;;6.50;99.90;;;;;;5019227;28;20203;-68
2022/03/16 03:27:24;;;;;;;17.57;10.70;;;6.50;99.90;;;;;;5025484;28;20232;-68
2022/03/16 03:29:50;;;;;;;19.37;10.77;;;6.50;99.90;;;;;;5021757;28;20221;-69
2022/03/16 03:32:16;;;;;;;20.23;11.07;;;6.50;99.90;;;;;;5004571;28;20207;-69
2022/03/16 03:34:46;;;;;;;13.40;10.27;;;6.50;99.90;;;;;;5025599;28;20192;-68
2022/03/16 03:37:13;;;;;;;16.70;10.20;;;6.50;99.90;;;;;;5015487;28;20214;-67
2022/03/16 03:39:39;;;;;;;18.17;9.60;;;6.50;99.90;;;;;;5016172;28;20198;-68
2022/03/16 03:42:04;;;;;;;17.60;11.17;;;6.40;99.90;;;;;;5018087;28;20223;-67
2022/03/16 03:44:30;;;;;;;21.17;10.90;;;6.30;99.90;;;;;;5016446;28;20184;-67
2022/03/16 03:46:55;;;;;;;15.10;9.67;;;6.30;99.90;;;;;;5005731;28;20208;-67
2022/03/16 03:49:21;;;;;;;15.63;10.30;;;6.20;99.90;;;;;;5021937;28;20203;-67
2022/03/16 03:51:46;;;;;;;13.60;9.77;;;6.20;99.90;;;;;;5003713;28;20286;-67
2022/03/16 03:54:12;;;;;;;23.80;11.57;;;6.10;99.90;;;;;;5014802;28;20995;-69
2022/03/16 03:56:37;;;;;;;13.87;10.43;;;6.10;99.90;;;;;;5006236;28;20200;-68
2022/03/16 03:59:03;;;;;;;18.37;11.47;;;6.10;99.90;;;;;;5021536;28;20226;-67
2022/03/16 04:01:28;;;;;;;20.03;10.27;;;6.10;99.90;;;;;;5005565;28;20303;-67
2022/03/16 04:03:54;;;;;;;15.30;11.20;;;6.10;99.90;;;;;;5012934;28;20203;-68
2022/03/16 04:06:19;;;;;;;16.47;10.77;;;6.10;99.90;;;;;;5005800;28;20192;-67
2022/03/16 04:08:45;;;;;;;18.87;10.57;;;6.10;99.90;;;;;;5021035;28;20206;-68
2022/03/16 04:11:11;;;;;;;17.40;10.67;;;6.10;99.90;;;;;;5021055;28;20620;-67
2022/03/16 04:13:37;;;;;;;18.40;10.63;;;6.10;99.90;;;;;;5009460;28;20208;-68
2022/03/16 04:16:03;;;;;;;18.77;10.43;;;6.10;99.90;;;;;;5006391;28;20199;-67
2022/03/16 04:18:29;;;;;;;18.00;10.63;;;6.10;99.90;;;;;;5012601;28;20211;-66
2022/03/16 04:20:54;;;;;;;20.17;10.33;;;6.00;99.90;;;;;;5005413;28;20184;-67
2022/03/16 04:23:20;;;;;;;16.47;10.50;;;6.00;99.90;;;;;;5015931;28;20209;-67
2022/03/16 04:25:46;;;;;;;17.03;11.27;;;6.00;99.90;;;;;;5004774;28;20204;-68
2022/03/16 04:28:11;;;;;;;17.60;11.93;;;6.00;99.90;;;;;;5004064;28;20227;-66
2022/03/16 04:30:37;;;;;;;20.47;12.43;;;6.00;99.90;;;;;;5007328;28;20188;-69
2022/03/16 04:33:02;;;;;;;16.33;10.63;;;6.00;99.90;;;;;;5014863;28;20204;-65
2022/03/16 04:35:28;;;;;;;16.13;11.43;;;5.90;99.90;;;;;;5017889;28;20192;-65
2022/03/16 04:37:53;;;;;;;20.07;12.40;;;5.90;99.90;;;;;;5011942;28;20211;-67
2022/03/16 04:40:19;;;;;;;20.80;11.83;;;5.90;99.90;;;;;;5010320;28;20188;-70
2022/03/16 04:42:44;;;;;;;20.47;12.17;;;5.80;99.90;;;;;;5008093;28;20212;-67
2022/03/16 04:45:10;;;;;;;15.87;10.83;;;5.80;99.90;;;;;;5015654;28;20186;-68
2022/03/16 04:47:36;;;;;;;24.37;12.20;;;5.80;99.90;;;;;;5018712;28;20610;-68
2022/03/16 04:50:02;;;;;;;19.67;10.93;;;5.80;99.90;;;;;;5011485;28;20192;-68
2022/03/16 04:52:27;;;;;;;21.20;11.30;;;5.70;99.90;;;;;;5010862;28;20242;-67
2022/03/16 04:54:52;;;;;;;18.53;12.57;;;5.70;99.90;;;;;;5020133;28;20531;-68
2022/03/16 04:57:18;;;;;;;22.30;13.30;;;5.70;99.90;;;;;;5019187;28;20204;-69
2022/03/16 04:59:43;;;;;;;20.73;12.67;;;5.70;99.90;;;;;;5009862;28;20198;-69
2022/03/16 05:02:09;;;;;;;21.07;12.47;;;5.70;99.90;;;;;;5007418;28;20742;-70
2022/03/16 05:04:34;;;;;;;15.03;11.23;;;5.60;99.90;;;;;;5015203;28;20210;-70
2022/03/16 05:07:00;;;;;;;17.13;11.37;;;5.60;99.90;;;;;;5016819;28;20184;-69
2022/03/16 05:09:25;;;;;;;18.27;11.37;;;5.50;99.90;;;;;;5020077;28;20876;-69
2022/03/16 05:11:51;;;;;;;17.50;10.80;;;5.50;99.90;;;;;;5015626;28;20191;-71
2022/03/16 05:14:17;;;;;;;20.13;12.87;;;5.50;99.90;;;;;;5028997;28;20622;-69
2022/03/16 05:16:43;;;;;;;27.93;12.07;;;5.50;99.90;;;;;;5006731;28;20245;-69
2022/03/16 05:19:08;;;;;;;20.17;12.67;;;5.40;99.90;;;;;;5022165;28;20188;-70
2022/03/16 05:21:33;;;;;;;22.30;12.23;;;5.50;99.90;;;;;;5008416;28;20222;-71
2022/03/16 05:23:59;;;;;;;19.53;12.87;;;5.40;99.90;;;;;;5017306;28;20208;-70
2022/03/16 05:26:25;;;;;;;16.67;11.60;;;5.40;99.90;;;;;;5008558;28;20228;-70
2022/03/16 05:28:52;;;;;;;23.70;12.50;;;5.40;99.90;;;;;;5019027;28;20199;-70
2022/03/16 05:31:20;;;;;;;22.33;11.80;;;5.40;99.90;;;;;;5022982;28;20216;-69
2022/03/16 05:33:47;;;;;;;21.17;12.57;;;5.40;99.90;;;;;;5017024;28;20226;-69
2022/03/16 05:36:12;;;;;;;18.33;12.30;;;5.40;99.90;;;;;;5015815;28;20202;-69
2022/03/16 05:38:38;;;;;;;18.03;12.23;;;5.30;99.90;;;;;;5014898;28;20282;-70
2022/03/16 05:41:03;;;;;;;18.63;11.97;;;5.30;99.90;;;;;;5024687;28;20202;-70
2022/03/16 05:43:28;;;;;;;19.50;12.70;;;5.30;99.90;;;;;;5011246;28;20208;-70
2022/03/16 05:45:54;;;;;;;21.27;12.77;;;5.30;99.90;;;;;;5021165;28;20346;-69
2022/03/16 05:48:19;;;;;;;30.40;13.63;;;5.30;99.90;;;;;;5010025;28;20204;-70
2022/03/16 05:50:46;;;;;;;21.73;13.10;;;5.30;99.90;;;;;;5011865;28;21006;-69
2022/03/16 05:53:12;;;;;;;19.90;12.83;;;5.30;99.90;;;;;;5010865;28;20668;-70
2022/03/16 05:55:38;;;;;;;22.70;13.07;;;5.30;99.90;;;;;;5023098;28;20203;-69
2022/03/16 05:58:03;;;;;;;27.03;14.20;;;5.20;99.90;;;;;;5010813;28;20266;-69
2022/03/16 06:00:31;;;;;;;23.43;14.10;;;5.30;99.90;;;;;;5008800;28;20188;-69
2022/03/16 06:02:57;;;;;;;22.93;13.10;;;5.20;99.90;;;;;;5006616;28;20220;-69
2022/03/16 06:05:23;;;;;;;24.40;13.43;;;5.10;99.90;;;;;;5016412;28;20215;-69
2022/03/16 06:07:48;;;;;;;20.60;13.43;;;5.10;99.90;;;;;;5005707;28;20670;-69
2022/03/16 06:10:17;;;;;;;24.10;13.83;;;5.10;99.90;;;;;;5010659;28;20651;-69
2022/03/16 06:12:56;;;;;;;25.60;13.97;;;5.10;99.90;;;;;;5017457;28;20204;-69
2022/03/16 06:15:24;;;;;;;28.97;13.27;;;5.10;99.90;;;;;;5005205;28;20199;-69
2022/03/16 06:17:58;;;;;;;23.13;14.60;;;5.10;99.90;;;;;;5016596;28;20288;-69
2022/03/16 06:20:25;;;;;;;25.97;18.93;;;5.20;99.90;;;;;;5014496;28;20697;-69
2022/03/16 06:22:51;;;;;;;28.10;19.13;;;5.10;99.90;;;;;;5016050;28;20215;-69
2022/03/16 06:25:16;;;;;;;26.93;13.90;;;5.20;99.90;;;;;;5010013;28;20212;-69
2022/03/16 06:27:42;;;;;;;22.87;13.67;;;5.20;99.90;;;;;;5016393;28;20570;-69
2022/03/16 06:30:08;;;;;;;22.70;15.67;;;5.20;99.90;;;;;;5022415;28;20183;-69
2022/03/16 06:32:34;;;;;;;23.87;14.73;;;5.30;99.90;;;;;;5016248;28;20701;-70
2022/03/16 06:35:00;;;;;;;25.57;15.60;;;5.30;99.90;;;;;;5020985;28;20187;-70
2022/03/16 06:37:25;;;;;;;26.00;17.27;;;5.30;99.90;;;;;;5022117;28;20200;-69
2022/03/16 06:39:51;;;;;;;23.73;16.23;;;5.30;99.90;;;;;;5010185;28;20231;-72
2022/03/16 06:42:16;;;;;;;25.97;15.53;;;5.40;99.90;;;;;;5004448;28;20263;-71
2022/03/16 06:44:42;;;;;;;21.73;16.07;;;5.50;99.90;;;;;;5016127;28;20195;-71
2022/03/16 06:47:07;;;;;;;26.57;17.10;;;5.50;99.90;;;;;;5007651;28;20196;-67
2022/03/16 06:49:33;;;;;;;29.80;18.13;;;5.50;99.90;;;;;;5006326;28;20258;-68
2022/03/16 06:51:58;;;;;;;28.07;18.27;;;5.60;99.90;;;;;;5022105;28;20322;-69
2022/03/16 06:54:24;;;;;;;28.07;16.97;;;5.70;99.90;;;;;;5019033;28;20183;-71
2022/03/16 06:56:49;;;;;;;26.33;17.17;;;5.70;99.90;;;;;;5005750;28;20192;-71
2022/03/16 06:59:15;;;;;;;27.53;17.20;;;5.70;99.90;;;;;;5019183;28;20188;-70
2022/03/16 07:01:40;;;;;;;31.50;16.97;;;5.70;99.90;;;;;;5006684;28;20566;-70
2022/03/16 07:04:06;;;;;;;33.13;18.40;;;5.80;99.90;;;;;;5013709;28;20574;-70
2022/03/16 07:06:31;;;;;;;30.00;18.40;;;5.90;99.90;;;;;;5006326;28;20199;-69
2022/03/16 07:08:57;;;;;;;23.80;16.13;;;6.00;99.90;;;;;;5013444;28;20204;-69
2022/03/16 07:11:22;;;;;;;28.53;17.37;;;6.00;99.90;;;;;;5006310;28;20769;-69
2022/03/16 07:16:32;;;;;;;28.63;16.77;;;6.10;99.90;;;;;;4999960;28;20203;-69
2022/03/16 07:18:58;;;;;;;29.33;16.80;;;6.20;99.90;;;;;;5010914;28;20215;-70
2022/03/16 07:21:24;;;;;;;27.67;15.97;;;6.20;99.90;;;;;;5011319;28;20192;-69
2022/03/16 07:23:49;;;;;;;25.27;16.13;;;6.30;99.90;;;;;;5013443;28;20211;-69
2022/03/16 07:26:15;;;;;;;30.27;16.87;;;6.30;99.90;;;;;;5005615;28;20686;-69
2022/03/16 07:28:40;;;;;;;22.70;16.80;;;6.40;99.90;;;;;;5013809;28;20210;-70
2022/03/16 07:31:08;;;;;;;24.63;16.63;;;6.40;99.90;;;;;;5019018;28;20721;-69
2022/03/16 07:33:34;;;;;;;21.80;15.23;;;6.40;99.90;;;;;;5010773;28;20671;-69
2022/03/16 07:36:00;;;;;;;23.63;15.13;;;6.30;99.90;;;;;;5016003;28;20282;-69
2022/03/16 07:38:25;;;;;;;25.70;15.40;;;6.10;99.90;;;;;;5012865;28;21112;-69
2022/03/16 07:40:51;;;;;;;24.87;15.87;;;6.00;99.90;;;;;;5022663;28;20196;-69
2022/03/16 07:43:16;;;;;;;26.90;16.10;;;6.00;99.90;;;;;;5011544;28;20207;-69
2022/03/16 07:45:42;;;;;;;24.57;16.37;;;6.00;99.90;;;;;;5017731;28;20315;-70
2022/03/16 07:48:07;;;;;;;29.17;17.97;;;6.00;99.90;;;;;;5010003;28;20921;-71
2022/03/16 07:50:33;;;;;;;26.77;16.73;;;5.70;99.90;;;;;;5020458;28;20202;-70
2022/03/16 07:52:59;;;;;;;25.80;16.20;;;5.80;99.90;;;;;;5020077;28;20214;-71
2022/03/16 07:55:25;;;;;;;27.90;16.67;;;5.80;99.90;;;;;;5006563;28;20192;-69
2022/03/16 07:57:52;;;;;;;24.77;16.00;;;5.80;99.90;;;;;;5015512;28;20208;-71
2022/03/16 08:00:18;;;;;;;21.97;15.93;;;5.90;99.90;;;;;;5005722;28;20195;-72
2022/03/16 08:02:44;;;;;;;25.30;16.13;;;5.90;99.90;;;;;;5007376;28;20243;-71
2022/03/16 08:05:10;;;;;;;27.13;17.40;;;5.90;99.90;;;;;;5008562;28;20223;-71
2022/03/16 08:07:39;;;;;;;28.73;16.90;;;5.90;99.90;;;;;;5011719;28;20971;-71
2022/03/16 08:10:05;;;;;;;26.80;17.03;;;6.00;99.90;;;;;;5017030;28;20268;-71
2022/03/16 08:12:31;;;;;;;30.23;17.43;;;6.00;99.90;;;;;;5015119;28;20308;-71
2022/03/16 08:14:57;;;;;;;24.27;16.33;;;6.10;99.90;;;;;;5018979;28;20548;-71
2022/03/16 08:17:22;;;;;;;22.97;15.73;;;6.20;99.90;;;;;;5017549;28;20207;-71
2022/03/16 08:19:48;;;;;;;26.03;16.10;;;6.20;99.90;;;;;;5021599;28;20195;-71
2022/03/16 08:22:23;;;;;;;25.17;15.90;;;6.10;99.90;;;;;;5006631;28;20732;-68
2022/03/16 08:24:50;;;;;;;28.93;16.97;;;6.30;99.90;;;;;;5020145;28;20210;-68
2022/03/16 08:27:16;;;;;;;25.17;17.27;;;6.40;99.90;;;;;;5020488;28;20228;-69
2022/03/16 08:29:42;;;;;;;26.33;16.33;;;6.50;99.90;;;;;;5009557;28;20195;-71
2022/03/16 08:32:08;;;;;;;26.90;15.90;;;6.50;99.90;;;;;;5024912;28;20211;-72
2022/03/16 08:34:33;;;;;;;23.00;14.70;;;6.70;99.90;;;;;;5023834;28;20206;-72
2022/03/16 08:37:00;;;;;;;26.67;16.03;;;6.70;99.90;;;;;;5016326;28;20207;-70
2022/03/16 08:39:26;;;;;;;22.93;16.43;;;6.70;99.90;;;;;;5009106;28;20208;-70
2022/03/16 08:41:52;;;;;;;22.97;14.37;;;6.70;99.90;;;;;;5015787;28;20238;-70
2022/03/16 08:44:17;;;;;;;24.60;16.80;;;6.70;99.90;;;;;;5009236;28;20197;-73
2022/03/16 08:46:43;;;;;;;20.37;13.57;;;6.80;99.90;;;;;;5019746;28;20304;-73
2022/03/16 08:49:08;;;;;;;24.10;14.40;;;6.80;99.90;;;;;;5009283;28;20202;-72
2022/03/16 08:51:34;;;;;;;20.60;15.30;;;6.70;99.90;;;;;;5016335;28;20204;-72
2022/03/16 08:53:59;;;;;;;22.97;14.13;;;6.80;99.90;;;;;;5010166;28;20752;-72
2022/03/16 08:56:25;;;;;;;23.67;16.43;;;6.80;99.90;;;;;;5015787;28;20200;-72
2022/03/16 08:58:50;;;;;;;22.80;15.43;;;6.80;99.90;;;;;;5008736;28;20196;-73
2022/03/16 09:01:16;;;;;;;21.23;14.73;;;6.70;99.90;;;;;;5018909;28;20262;-73
2022/03/16 09:03:41;;;;;;;24.20;15.40;;;6.80;99.90;;;;;;5020601;28;20199;-74
2022/03/16 09:06:08;;;;;;;22.20;15.97;;;6.90;99.90;;;;;;5011309;28;20298;-73
2022/03/16 09:08:34;;;;;;;20.67;15.30;;;6.80;99.90;;;;;;5014907;28;20541;-73
2022/03/16 09:10:59;;;;;;;20.97;14.23;;;6.80;99.90;;;;;;5023446;28;20207;-74
2022/03/16 09:13:25;;;;;;;21.17;13.47;;;7.10;99.90;;;;;;5008930;28;20291;-74
2022/03/16 09:15:51;;;;;;;21.53;14.03;;;7.10;99.90;;;;;;5009120;28;20197;-74
2022/03/16 09:18:18;;;;;;;25.07;14.67;;;6.90;99.90;;;;;;5016916;28;20282;-73
2022/03/16 09:20:44;;;;;;;20.40;14.00;;;7.10;99.90;;;;;;5017923;28;20229;-73
2022/03/16 09:23:09;;;;;;;25.77;14.27;;;7.40;99.90;;;;;;5024115;28;20216;-72
2022/03/16 09:25:35;;;;;;;29.93;15.27;;;7.50;99.90;;;;;;5006424;28;20212;-72
2022/03/16 09:28:01;;;;;;;20.77;14.20;;;7.50;99.90;;;;;;5025075;28;20242;-73
2022/03/16 09:30:27;;;;;;;20.73;13.87;;;7.50;99.90;;;;;;5011928;28;20263;-73
2022/03/16 09:32:57;;;;;;;26.07;15.87;;;7.50;99.90;;;;;;5016696;28;20215;-72
2022/03/16 09:35:23;;;;;;;16.70;13.07;;;7.60;99.90;;;;;;5011020;28;20222;-73
2022/03/16 09:37:49;;;;;;;22.17;13.37;;;7.80;99.90;;;;;;5027049;28;20186;-74
2022/03/16 09:40:15;;;;;;;22.70;17.27;;;7.90;99.90;;;;;;5006206;28;20208;-73
2022/03/16 09:42:42;;;;;;;19.80;13.60;;;7.80;99.90;;;;;;5020601;28;20205;-70
2022/03/16 09:45:10;;;;;;;15.03;12.17;;;8.00;99.90;;;;;;5005879;28;20292;-70
2022/03/16 09:47:36;;;;;;;19.00;13.30;;;8.10;99.90;;;;;;5027482;28;20199;-73
2022/03/16 09:50:02;;;;;;;24.63;15.97;;;8.30;99.90;;;;;;5015167;28;20195;-72
2022/03/16 09:52:28;;;;;;;19.73;13.07;;;8.30;99.90;;;;;;5015210;28;20558;-71
2022/03/16 09:54:54;;;;;;;18.23;11.53;;;8.40;99.90;;;;;;5015216;28;20196;-71
2022/03/16 09:57:20;;;;;;;17.93;12.67;;;8.50;99.90;;;;;;5020350;28;20183;-71
2022/03/16 09:59:46;;;;;;;23.83;15.57;;;8.50;99.90;;;;;;5019840;28;20706;-71
2022/03/16 10:02:16;;;;;;;19.40;12.97;;;8.30;99.90;;;;;;5019281;28;20250;-71
2022/03/16 10:04:42;;;;;;;18.27;13.13;;;8.30;99.90;;;;;;5007698;28;20200;-73
2022/03/16 10:07:08;;;;;;;17.30;13.10;;;8.40;99.90;;;;;;5018130;28;20247;-73
2022/03/16 10:15:21;;;;;;;20.70;12.33;;;8.40;99.90;;;;;;5020980;28;20212;-73
2022/03/16 10:17:49;;;;;;;18.27;12.97;;;8.20;99.90;;;;;;5015021;28;20207;-74
2022/03/16 10:20:26;;;;;;;16.23;12.60;;;7.80;99.90;;;;;;5006491;28;20292;-73
2022/03/16 10:22:52;;;;;;;27.10;18.57;;;7.80;99.90;;;;;;5008909;28;20258;-70
2022/03/16 10:25:18;;;;;;;18.33;13.37;;;7.50;99.90;;;;;;5003312;28;20300;-71
2022/03/16 10:27:43;;;;;;;22.10;15.00;;;7.80;99.90;;;;;;5011794;28;20696;-69
2022/03/16 10:30:09;;;;;;;15.67;12.73;;;8.10;99.90;;;;;;5002225;28;20201;-68
2022/03/16 10:32:35;;;;;;;17.17;11.73;;;8.10;99.90;;;;;;5015671;28;20204;-69
2022/03/16 10:35:07;;;;;;;16.57;12.07;;;8.10;99.90;;;;;;5021613;28;20212;-69
2022/03/16 10:37:37;;;;;;;18.07;12.73;;;8.20;99.90;;;;;;5015466;28;20235;-72
2022/03/16 10:40:15;;;;;;;17.30;12.63;;;8.10;99.90;;;;;;4998446;28;20720;-67
2022/03/16 10:48:19;;;;;;;17.03;11.90;;;8.70;99.90;;;;;;4999243;28;20743;-66
2022/03/16 10:50:46;;;;;;;16.43;12.40;;;8.90;99.90;;;;;;5005597;28;20194;-69
2022/03/16 10:53:14;;;;;;;16.23;11.13;;;9.00;99.90;;;;;;4999208;28;20210;-70
2022/03/16 10:55:40;;;;;;;16.23;12.33;;;9.40;99.90;;;;;;5001965;28;20255;-67
2022/03/16 10:58:07;;;;;;;17.00;12.37;;;9.70;99.90;;;;;;4998587;28;20290;-71
2022/03/16 11:00:35;;;;;;;15.90;12.13;;;9.80;99.90;;;;;;4995807;28;20194;-71
2022/03/16 11:03:06;;;;;;;27.37;19.63;;;9.90;99.90;;;;;;5002211;28;20222;-68
2022/03/16 11:05:37;;;;;;;30.70;21.10;;;10.00;99.90;;;;;;4986506;28;20195;-71
2022/03/16 11:08:07;;;;;;;21.47;17.27;;;10.00;99.90;;;;;;5009709;28;20213;-68
2022/03/16 11:10:34;;;;;;;23.13;17.13;;;10.20;99.90;;;;;;5004146;28;20205;-68
2022/03/16 11:15:47;;;;;;;19.77;13.63;;;9.90;99.90;;;;;;5009679;28;20252;-69
2022/03/16 11:18:12;;;;;;;18.13;11.03;;;10.20;99.90;;;;;;5004522;28;20240;-67
2022/03/16 11:20:38;;;;;;;18.43;9.93;;;10.50;99.90;;;;;;5000703;28;20715;-69
2022/03/16 11:26:13;;;;;;;13.93;11.13;;;10.60;99.90;;;;;;5006029;28;20247;-71
2022/03/16 11:28:50;;;;;;;17.90;12.70;;;10.70;99.90;;;;;;5003881;28;20257;-70
2022/03/16 11:31:15;;;;;;;19.50;14.93;;;10.80;99.90;;;;;;5007813;28;20699;-70
2022/03/16 11:33:51;;;;;;;15.73;11.37;;;10.90;99.90;;;;;;5015224;28;20270;-70
2022/03/16 11:36:37;;;;;;;16.33;10.73;;;11.00;99.90;;;;;;5015961;28;20225;-68
2022/03/16 11:39:13;;;;;;;14.13;10.43;;;11.10;99.90;;;;;;5013805;28;20190;-67
2022/03/16 11:41:54;;;;;;;14.40;9.40;;;11.10;99.90;;;;;;5012996;28;20210;-70
2022/03/16 11:44:25;;;;;;;13.17;9.20;;;11.20;99.90;;;;;;5005205;28;20183;-69
2022/03/16 11:46:55;;;;;;;11.70;10.03;;;11.30;99.90;;;;;;5004470;28;20224;-67
2022/03/16 11:49:29;;;;;;;14.40;10.73;;;11.60;99.90;;;;;;5005070;28;20198;-67
2022/03/16 11:51:59;;;;;;;14.13;9.67;;;11.10;99.90;;;;;;5004153;28;20633;-68
2022/03/16 11:54:51;;;;;;;14.43;10.40;;;11.60;99.90;;;;;;5005334;28;20209;-67
2022/03/16 11:57:48;;;;;;;12.50;10.20;;;11.70;99.90;;;;;;5006031;28;20649;-68
2022/03/16 12:00:14;;;;;;;12.77;9.33;;;12.30;99.90;;;;;;5004926;28;20253;-68
2022/03/16 12:02:40;;;;;;;12.50;9.60;;;12.70;99.90;;;;;;5004537;28;20215;-69
2022/03/16 12:05:08;;;;;;;13.83;10.37;;;12.80;99.90;;;;;;5004654;28;20789;-68
2022/03/16 12:07:35;;;;;;;13.83;9.37;;;13.10;99.90;;;;;;5005652;28;20227;-64
2022/03/16 12:10:08;;;;;;;12.63;9.37;;;13.10;99.90;;;;;;5008436;28;20542;-65
2022/03/16 12:12:57;;;;;;;14.70;9.53;;;13.20;99.90;;;;;;5011496;28;20192;-64
2022/03/16 12:15:37;;;;;;;13.20;10.37;;;13.10;99.90;;;;;;5004423;28;20675;-64
2022/03/16 12:18:07;;;;;;;13.90;9.40;;;13.40;99.90;;;;;;5017278;28;20211;-65
2022/03/16 12:20:45;;;;;;;11.57;8.00;;;13.60;99.90;;;;;;5011052;28;20207;-65
2022/03/16 12:23:16;;;;;;;13.77;8.97;;;13.50;99.90;;;;;;4997495;28;20219;-65
2022/03/16 12:25:51;;;;;;;13.50;9.00;;;14.20;99.90;;;;;;5014112;28;20277;-65
2022/03/16 12:31:15;;;;;;;11.73;9.60;;;14.30;99.90;;;;;;5022926;28;20186;-64
2022/03/16 12:33:42;;;;;;;15.63;10.03;;;14.50;99.90;;;;;;5003713;28;20204;-67
2022/03/16 12:36:32;;;;;;;15.17;9.83;;;14.60;99.70;;;;;;5001554;28;20652;-66
2022/03/16 12:39:03;;;;;;;14.77;10.30;;;14.50;99.70;;;;;;4999947;28;20211;-65
2022/03/16 12:44:17;;;;;;;15.77;10.77;;;14.90;99.40;;;;;;4993031;28;20242;-66
2022/03/16 12:46:54;;;;;;;14.67;11.07;;;14.50;99.50;;;;;;5000443;28;20297;-66
2022/03/16 12:49:21;;;;;;;15.97;12.00;;;14.90;99.30;;;;;;4997282;28;20200;-67
2022/03/16 12:51:59;;;;;;;25.67;12.10;;;15.00;98.80;;;;;;5008288;28;20296;-66
2022/03/16 12:54:33;;;;;;;15.53;11.37;;;15.00;98.60;;;;;;5005567;28;20679;-66
2022/03/16 12:57:03;;;;;;;19.23;12.87;;;14.50;98.50;;;;;;5008655;28;20197;-65
2022/03/16 12:59:32;;;;;;;20.07;12.70;;;14.50;99.00;;;;;;5020014;28;20191;-66